createdAt,value
2023-05-10T00:04:07.211Z,99069.21
2023-05-10T00:09:09.055Z,99064.41
2023-05-10T00:14:10.690Z,99060.83
2023-05-10T00:19:12.474Z,99056.35
2023-05-10T00:24:14.274Z,99056.96
2023-05-10T00:29:16.207Z,99056.30
2023-05-10T00:34:17.862Z,99056.52
2023-05-10T00:39:20.503Z,99051.88
2023-05-10T00:44:22.136Z,99052.29
2023-05-10T00:49:23.999Z,99051.04
2023-05-10T00:54:25.816Z,99049.36
2023-05-10T00:59:27.613Z,99044.40
2023-05-10T01:04:29.904Z,99035.89
2023-05-10T01:09:34.213Z,99039.19
2023-05-10T01:14:37.306Z,99031.95
2023-05-10T01:19:39.547Z,99033.13
2023-05-10T01:25:25.830Z,99026.54
2023-05-10T01:30:43.928Z,99019.34
2023-05-10T01:36:00.426Z,99018.32
2023-05-10T01:41:24.930Z,99019.83
2023-05-10T01:46:38.032Z,99018.74
2023-05-10T01:51:48.111Z,99016.77
2023-05-10T01:57:00.429Z,99010.83
2023-05-10T02:02:03.576Z,99009.90
2023-05-10T02:07:06.813Z,99004.87
2023-05-10T02:12:09.439Z,99009.63
2023-05-10T02:17:12.886Z,99003.56
2023-05-10T02:22:17.562Z,99002.10
2023-05-10T02:27:21.013Z,99005.50
2023-05-10T02:32:25.630Z,99002.36
2023-05-10T02:37:28.431Z,99002.50
2023-05-10T02:42:33.652Z,99002.80
2023-05-10T02:47:35.585Z,99000.30
2023-05-10T02:52:47.902Z,99005.42
2023-05-10T02:57:53.476Z,99008.29
2023-05-10T03:02:55.599Z,99007.89
2023-05-10T03:07:57.921Z,99007.84
2023-05-10T03:13:02.590Z,99009.65
2023-05-10T03:18:19.864Z,99010.34
2023-05-10T03:23:47.244Z,99009.91
2023-05-10T03:28:50.812Z,99004.27
2023-05-10T03:33:53.532Z,99003.56
2023-05-10T03:39:00.685Z,98999.08
2023-05-10T03:44:02.943Z,98996.98
2023-05-10T03:49:04.584Z,98996.95
2023-05-10T03:54:06.519Z,98994.06
2023-05-10T03:59:09.780Z,98993.17
2023-05-10T04:04:11.636Z,98987.27
2023-05-10T04:09:13.842Z,98988.80
2023-05-10T04:14:15.597Z,98984.33
2023-05-10T04:19:17.255Z,98984.66
2023-05-10T04:24:19.375Z,98984.03
2023-05-10T04:29:21.491Z,98983.08
2023-05-10T04:34:23.229Z,98984.89
2023-05-10T04:39:24.865Z,98980.80
2023-05-10T04:44:26.734Z,98981.39
2023-05-10T04:49:28.466Z,98985.59
2023-05-10T04:54:30.131Z,98981.64
2023-05-10T04:59:31.949Z,98979.35
2023-05-10T05:04:33.611Z,98976.71
2023-05-10T05:09:35.555Z,98977.87
2023-05-10T05:14:37.223Z,98976.02
2023-05-10T05:19:39.075Z,98970.85
2023-05-10T05:24:40.792Z,98971.31
2023-05-10T05:29:42.634Z,98968.44
2023-05-10T05:34:47.517Z,98972.73
2023-05-10T05:39:49.607Z,98970.68
2023-05-10T05:44:51.264Z,98975.89
2023-05-10T05:49:52.955Z,98970.62
2023-05-10T05:54:54.561Z,98965.11
2023-05-10T05:59:56.400Z,98960.20
2023-05-10T06:04:58.388Z,98959.00
2023-05-10T06:10:00.264Z,98952.56
2023-05-10T06:15:02.232Z,98958.06
2023-05-10T06:20:04.441Z,98956.55
2023-05-10T06:25:07.010Z,98957.44
2023-05-10T06:30:13.238Z,98959.33
2023-05-10T06:35:15.490Z,98959.81
2023-05-10T06:40:17.828Z,98956.09
2023-05-10T06:45:19.898Z,98953.23
2023-05-10T06:50:22.022Z,98952.48
2023-05-10T06:55:23.857Z,98951.66
2023-05-10T07:00:26.199Z,98952.73
2023-05-10T07:05:29.104Z,98944.05
2023-05-10T07:10:31.002Z,98943.46
2023-05-10T07:15:33.007Z,98942.27
2023-05-10T07:20:34.659Z,98943.91
2023-05-10T07:25:36.320Z,98946.85
2023-05-10T07:30:38.144Z,98939.27
2023-05-10T07:35:40.415Z,98934.08
2023-05-10T07:40:42.056Z,98934.45
2023-05-10T07:45:44.258Z,98934.55
2023-05-10T07:50:46.000Z,98928.33
2023-05-10T07:55:52.796Z,98923.98
2023-05-10T08:00:54.506Z,98918.52
2023-05-10T08:05:56.203Z,98918.94
2023-05-10T08:10:57.942Z,98919.88
2023-05-10T08:15:59.649Z,98920.09
2023-05-10T08:21:01.349Z,98917.48
2023-05-10T08:26:03.173Z,98915.85
2023-05-10T08:31:05.975Z,98909.48
2023-05-10T08:36:08.015Z,98912.94
2023-05-10T08:41:11.086Z,98916.04
2023-05-10T08:46:20.614Z,98911.91
2023-05-10T08:51:28.957Z,98909.83
2023-05-10T08:56:30.677Z,98911.81
2023-05-10T09:01:33.986Z,98912.35
2023-05-10T09:06:35.944Z,98917.11
2023-05-10T09:11:38.067Z,98910.63
2023-05-10T09:16:41.176Z,98911.89
2023-05-10T09:21:43.042Z,98915.28
2023-05-10T09:26:51.605Z,98913.27
2023-05-10T09:31:55.762Z,98904.77
2023-05-10T09:36:59.578Z,98905.72
2023-05-10T09:42:05.306Z,98901.39
2023-05-10T09:47:07.117Z,98906.39
2023-05-10T09:52:09.167Z,98903.42
2023-05-10T09:57:21.574Z,98901.39
2023-05-10T10:02:30.270Z,98892.90
2023-05-10T10:07:33.010Z,98890.23
2023-05-10T10:12:34.731Z,98888.67
2023-05-10T10:17:38.454Z,98890.77
2023-05-10T10:22:40.278Z,98888.52
2023-05-10T10:27:54.392Z,98880.45
2023-05-10T10:33:31.933Z,98869.73
2023-05-10T10:39:01.275Z,98872.19
2023-05-10T10:44:35.524Z,98873.20
2023-05-10T10:49:49.942Z,98870.32
2023-05-10T10:54:58.155Z,98865.20
2023-05-10T11:00:22.001Z,98862.60
2023-05-10T11:05:29.584Z,98857.58
2023-05-10T11:10:31.406Z,98848.58
2023-05-10T11:15:38.389Z,98845.88
2023-05-10T11:20:40.565Z,98849.46
2023-05-10T11:25:51.275Z,98838.10
2023-05-10T11:30:53.449Z,98845.36
2023-05-10T11:35:55.321Z,98843.83
2023-05-10T11:40:57.032Z,98834.44
2023-05-10T11:45:58.764Z,98831.19
2023-05-10T11:51:02.972Z,98831.85
2023-05-10T11:56:09.110Z,98831.70
2023-05-10T12:01:11.888Z,98826.34
2023-05-10T12:06:14.069Z,98828.30
2023-05-10T12:11:18.773Z,98830.83
2023-05-10T12:16:22.822Z,98827.33
2023-05-10T12:21:25.021Z,98832.48
2023-05-10T12:26:29.818Z,98835.72
2023-05-10T12:31:31.562Z,98835.98
2023-05-10T12:36:33.786Z,98825.88
2023-05-10T12:41:35.466Z,98833.64
2023-05-10T12:46:37.152Z,98821.66
2023-05-10T12:51:38.886Z,98820.48
2023-05-10T12:56:41.782Z,98815.70
2023-05-10T13:01:43.778Z,98803.90
2023-05-10T13:06:45.807Z,98805.24
2023-05-10T13:11:49.015Z,98798.79
2023-05-10T13:16:50.756Z,98795.73
2023-05-10T13:21:52.640Z,98794.46
2023-05-10T13:26:54.576Z,98790.27
2023-05-10T13:31:56.978Z,98787.63
2023-05-10T13:36:59.055Z,98788.83
2023-05-10T13:42:01.219Z,98783.19
2023-05-10T13:47:03.385Z,98777.11
2023-05-10T13:52:07.941Z,98771.61
2023-05-10T13:57:10.066Z,98765.27
2023-05-10T14:02:13.603Z,98762.83
2023-05-10T14:07:15.800Z,98761.03
2023-05-10T14:12:17.874Z,98754.72
2023-05-10T14:17:20.506Z,98751.65
2023-05-10T14:22:23.197Z,98752.65
2023-05-10T14:27:25.539Z,98747.90
2023-05-10T14:32:28.560Z,98743.44
2023-05-10T14:37:30.608Z,98744.94
2023-05-10T14:42:32.587Z,98745.27
2023-05-10T14:47:34.409Z,98744.10
2023-05-10T14:52:36.650Z,98743.02
2023-05-10T14:57:38.527Z,98742.20
2023-05-10T15:02:40.400Z,98740.23
2023-05-10T15:07:44.970Z,98735.96
2023-05-10T15:12:46.856Z,98741.20
2023-05-10T15:17:49.467Z,98742.22
2023-05-10T15:22:51.807Z,98741.38
2023-05-10T15:27:53.661Z,98741.65
2023-05-10T15:32:56.248Z,98741.77
2023-05-10T15:37:58.266Z,98744.48
2023-05-10T15:43:00.031Z,98742.08
2023-05-10T15:48:02.236Z,98740.30
2023-05-10T15:53:03.997Z,98741.30
2023-05-10T15:58:06.070Z,98738.38
2023-05-10T16:03:08.261Z,98744.55
2023-05-10T16:08:10.096Z,98745.71
2023-05-10T16:13:11.961Z,98746.33
2023-05-10T16:18:13.765Z,98744.98
2023-05-10T16:23:15.890Z,98749.14
2023-05-10T16:28:19.533Z,98749.50
2023-05-10T16:33:21.531Z,98747.35
2023-05-10T16:38:23.418Z,98750.55
2023-05-10T16:43:26.080Z,98752.85
2023-05-10T16:48:28.477Z,98752.31
2023-05-10T16:53:31.409Z,98756.33
2023-05-10T16:58:34.373Z,98759.63
2023-05-10T17:03:36.906Z,98763.39
2023-05-10T17:08:38.833Z,98769.30
2023-05-10T17:13:40.540Z,98772.56
2023-05-10T17:18:42.654Z,98777.09
2023-05-10T17:23:44.444Z,98776.09
2023-05-10T17:28:46.333Z,98780.36
2023-05-10T17:33:48.054Z,98781.77
2023-05-10T17:38:50.555Z,98782.84
2023-05-10T17:43:52.302Z,98788.06
2023-05-10T17:48:54.027Z,98786.27
2023-05-10T17:53:55.839Z,98787.36
2023-05-10T17:58:57.583Z,98791.21
2023-05-10T18:03:59.361Z,98799.08
2023-05-10T18:09:01.664Z,98801.84
2023-05-10T18:14:03.333Z,98805.58
2023-05-10T18:19:05.379Z,98807.03
2023-05-10T18:24:07.451Z,98811.10
2023-05-10T18:29:09.507Z,98819.34
2023-05-10T18:34:11.393Z,98822.06
2023-05-10T18:39:13.877Z,98826.38
2023-05-10T18:44:15.876Z,98834.59
2023-05-10T18:49:17.854Z,98840.00
2023-05-10T18:54:20.248Z,98848.44
2023-05-10T18:59:21.979Z,98851.95
2023-05-10T19:04:23.755Z,98858.87
2023-05-10T19:09:26.945Z,98861.41
2023-05-10T19:14:28.914Z,98862.69
2023-05-10T19:19:32.870Z,98865.33
2023-05-10T19:24:35.695Z,98875.66
2023-05-10T19:29:49.973Z,98877.73
2023-05-10T19:34:52.087Z,98881.45
2023-05-10T19:39:54.159Z,98883.41
2023-05-10T19:44:57.543Z,98883.13
2023-05-10T19:49:59.901Z,98884.63
2023-05-10T19:55:02.043Z,98891.37
2023-05-10T20:00:05.052Z,98895.34
2023-05-10T20:05:13.206Z,98895.37
2023-05-10T20:10:15.547Z,98901.50
2023-05-10T20:15:21.502Z,98902.81
2023-05-10T20:20:23.641Z,98906.63
2023-05-10T20:25:25.636Z,98911.27
2023-05-10T20:30:27.370Z,98913.46
2023-05-10T20:35:28.992Z,98914.33
2023-05-10T20:40:31.782Z,98916.73
2023-05-10T20:45:33.648Z,98918.36
2023-05-10T20:50:35.617Z,98922.96
2023-05-10T20:55:37.362Z,98919.17
2023-05-10T21:00:39.096Z,98925.40
2023-05-10T21:05:40.892Z,98925.64
2023-05-10T21:10:48.193Z,98925.27
2023-05-10T21:15:53.579Z,98925.02
2023-05-10T21:20:55.305Z,98923.02
2023-05-10T21:25:57.169Z,98924.50
2023-05-10T21:30:58.830Z,98924.23
2023-05-10T21:36:00.681Z,98926.82
2023-05-10T21:41:07.355Z,98930.70
2023-05-10T21:46:09.367Z,98936.31
2023-05-10T21:51:12.497Z,98934.27
2023-05-10T21:56:14.180Z,98939.08
2023-05-10T22:01:17.198Z,98942.98
2023-05-10T22:06:18.953Z,98941.84
2023-05-10T22:11:21.834Z,98944.05
2023-05-10T22:16:23.595Z,98954.89
2023-05-10T22:21:25.360Z,98956.38
2023-05-10T22:26:27.014Z,98960.70
2023-05-10T22:31:29.113Z,98965.48
2023-05-10T22:36:31.611Z,98966.54
2023-05-10T22:41:34.173Z,98964.77
2023-05-10T22:46:37.008Z,98969.39
2023-05-10T22:51:38.779Z,98970.43
2023-05-10T22:56:40.627Z,98980.49
2023-05-10T23:01:42.539Z,98983.64
2023-05-10T23:06:44.385Z,98981.07
2023-05-10T23:11:46.903Z,98983.08
2023-05-10T23:16:49.623Z,98987.92
2023-05-10T23:21:51.302Z,98986.85
2023-05-10T23:26:53.015Z,98987.40
2023-05-10T23:31:54.993Z,98986.71
2023-05-10T23:36:56.847Z,98982.92
2023-05-10T23:41:59.070Z,98989.65
2023-05-10T23:47:02.326Z,98984.21
2023-05-10T23:52:06.143Z,98986.41
2023-05-10T23:57:08.015Z,98991.47
